sensor_id;sensor_type;location;lat;lon;timestamp;P1;durP1;ratioP1;P2;durP2;ratioP2
74267;SDS011;62638;51.362;12.472;2023-02-28T00:01:11;2.88;;;1.23;;
74267;SDS011;62638;51.362;12.472;2023-02-28T01:40:27;2.90;;;1.08;;
74267;SDS011;62638;51.362;12.472;2023-02-28T01:42:53;1.77;;;1.30;;
74267;SDS011;62638;51.362;12.472;2023-02-28T01:45:31;0.73;;;0.50;;
74267;SDS011;62638;51.362;12.472;2023-02-28T01:48:04;0.43;;;0.43;;
74267;SDS011;62638;51.362;12.472;2023-02-28T01:50:34;1.55;;;1.10;;
74267;SDS011;62638;51.362;12.472;2023-02-28T01:53:04;0.45;;;0.45;;
74267;SDS011;62638;51.362;12.472;2023-02-28T01:55:32;2.88;;;0.88;;
74267;SDS011;62638;51.362;12.472;2023-02-28T01:57:59;3.50;;;0.90;;
74267;SDS011;62638;51.362;12.472;2023-02-28T02:00:27;2.55;;;1.23;;
74267;SDS011;62638;51.362;12.472;2023-02-28T02:02:58;4.72;;;1.63;;
74267;SDS011;62638;51.362;12.472;2023-02-28T02:05:30;1.35;;;0.75;;
74267;SDS011;62638;51.362;12.472;2023-02-28T02:08:03;1.85;;;1.02;;
74267;SDS011;62638;51.362;12.472;2023-02-28T02:13:37;1.00;;;0.60;;
74267;SDS011;62638;51.362;12.472;2023-02-28T02:16:23;2.33;;;1.13;;
74267;SDS011;62638;51.362;12.472;2023-02-28T02:18:52;1.17;;;1.05;;
74267;SDS011;62638;51.362;12.472;2023-02-28T02:35:18;0.70;;;0.70;;
74267;SDS011;62638;51.362;12.472;2023-02-28T02:38:00;1.05;;;0.40;;
74267;SDS011;62638;51.362;12.472;2023-02-28T02:40:35;2.35;;;1.25;;
74267;SDS011;62638;51.362;12.472;2023-02-28T02:43:13;1.75;;;0.98;;
74267;SDS011;62638;51.362;12.472;2023-02-28T02:48:14;2.25;;;0.45;;
74267;SDS011;62638;51.362;12.472;2023-02-28T02:50:44;1.23;;;0.93;;
74267;SDS011;62638;51.362;12.472;2023-02-28T02:53:14;2.00;;;0.85;;
74267;SDS011;62638;51.362;12.472;2023-02-28T02:55:45;3.47;;;1.98;;
74267;SDS011;62638;51.362;12.472;2023-02-28T02:58:18;3.13;;;1.23;;
74267;SDS011;62638;51.362;12.472;2023-02-28T03:00:47;1.90;;;0.82;;
74267;SDS011;62638;51.362;12.472;2023-02-28T03:03:18;1.00;;;0.82;;
74267;SDS011;62638;51.362;12.472;2023-02-28T03:05:53;0.50;;;0.43;;
74267;SDS011;62638;51.362;12.472;2023-02-28T03:08:20;1.40;;;0.57;;
74267;SDS011;62638;51.362;12.472;2023-02-28T03:10:48;1.05;;;0.50;;
74267;SDS011;62638;51.362;12.472;2023-02-28T03:27:22;1.67;;;1.23;;
74267;SDS011;62638;51.362;12.472;2023-02-28T03:29:55;1.45;;;1.05;;
74267;SDS011;62638;51.362;12.472;2023-02-28T03:32:29;1.40;;;1.00;;
74267;SDS011;62638;51.362;12.472;2023-02-28T03:35:08;1.63;;;1.15;;
74267;SDS011;62638;51.362;12.472;2023-02-28T03:37:46;1.95;;;0.65;;
74267;SDS011;62638;51.362;12.472;2023-02-28T03:40:15;1.25;;;0.90;;
74267;SDS011;62638;51.362;12.472;2023-02-28T03:42:45;3.13;;;0.85;;
74267;SDS011;62638;51.362;12.472;2023-02-28T03:47:49;5.68;;;1.70;;
74267;SDS011;62638;51.362;12.472;2023-02-28T03:50:26;1.40;;;1.10;;
74267;SDS011;62638;51.362;12.472;2023-02-28T03:53:02;1.55;;;0.60;;
74267;SDS011;62638;51.362;12.472;2023-02-28T03:55:37;3.83;;;1.30;;
74267;SDS011;62638;51.362;12.472;2023-02-28T03:58:10;3.85;;;1.20;;
74267;SDS011;62638;51.362;12.472;2023-02-28T04:00:38;3.38;;;1.00;;
74267;SDS011;62638;51.362;12.472;2023-02-28T04:03:08;2.45;;;0.68;;
74267;SDS011;62638;51.362;12.472;2023-02-28T04:05:33;4.22;;;1.30;;
74267;SDS011;62638;51.362;12.472;2023-02-28T04:08:14;0.75;;;0.75;;
74267;SDS011;62638;51.362;12.472;2023-02-28T04:10:39;2.60;;;0.90;;
74267;SDS011;62638;51.362;12.472;2023-02-28T04:13:05;3.95;;;1.30;;
74267;SDS011;62638;51.362;12.472;2023-02-28T04:15:30;3.07;;;0.73;;
74267;SDS011;62638;51.362;12.472;2023-02-28T04:17:56;3.72;;;0.93;;
74267;SDS011;62638;51.362;12.472;2023-02-28T04:20:22;1.90;;;0.68;;
74267;SDS011;62638;51.362;12.472;2023-02-28T04:22:47;4.07;;;1.20;;
74267;SDS011;62638;51.362;12.472;2023-02-28T04:25:12;2.00;;;0.73;;
74267;SDS011;62638;51.362;12.472;2023-02-28T04:27:37;0.97;;;0.93;;
74267;SDS011;62638;51.362;12.472;2023-02-28T04:30:03;0.30;;;0.20;;
74267;SDS011;62638;51.362;12.472;2023-02-28T04:32:28;0.70;;;0.70;;
74267;SDS011;62638;51.362;12.472;2023-02-28T04:34:54;2.77;;;0.43;;
74267;SDS011;62638;51.362;12.472;2023-02-28T04:37:19;1.70;;;1.00;;
74267;SDS011;62638;51.362;12.472;2023-02-28T04:39:44;4.28;;;1.48;;
74267;SDS011;62638;51.362;12.472;2023-02-28T04:42:10;1.03;;;1.03;;
74267;SDS011;62638;51.362;12.472;2023-02-28T04:44:36;0.77;;;0.73;;
74267;SDS011;62638;51.362;12.472;2023-02-28T04:47:01;0.73;;;0.40;;
74267;SDS011;62638;51.362;12.472;2023-02-28T04:49:26;1.67;;;1.27;;
74267;SDS011;62638;51.362;12.472;2023-02-28T04:51:52;1.77;;;1.13;;
74267;SDS011;62638;51.362;12.472;2023-02-28T04:54:18;2.22;;;1.23;;
74267;SDS011;62638;51.362;12.472;2023-02-28T04:56:43;1.27;;;0.70;;
74267;SDS011;62638;51.362;12.472;2023-02-28T04:59:08;2.47;;;1.40;;
74267;SDS011;62638;51.362;12.472;2023-02-28T05:01:33;4.53;;;1.00;;
74267;SDS011;62638;51.362;12.472;2023-02-28T05:04:00;3.03;;;0.75;;
74267;SDS011;62638;51.362;12.472;2023-02-28T05:06:27;3.53;;;0.98;;
74267;SDS011;62638;51.362;12.472;2023-02-28T05:08:54;1.75;;;1.20;;
74267;SDS011;62638;51.362;12.472;2023-02-28T05:11:28;2.65;;;0.80;;
74267;SDS011;62638;51.362;12.472;2023-02-28T05:13:59;2.78;;;1.42;;
74267;SDS011;62638;51.362;12.472;2023-02-28T05:18:53;2.63;;;1.70;;
74267;SDS011;62638;51.362;12.472;2023-02-28T05:21:23;1.00;;;0.73;;
74267;SDS011;62638;51.362;12.472;2023-02-28T05:23:51;3.90;;;1.13;;
74267;SDS011;62638;51.362;12.472;2023-02-28T05:26:17;1.27;;;0.95;;
74267;SDS011;62638;51.362;12.472;2023-02-28T05:28:42;1.77;;;1.27;;
74267;SDS011;62638;51.362;12.472;2023-02-28T05:31:10;0.55;;;0.55;;
74267;SDS011;62638;51.362;12.472;2023-02-28T05:33:36;1.75;;;1.65;;
74267;SDS011;62638;51.362;12.472;2023-02-28T05:36:01;1.00;;;0.77;;
74267;SDS011;62638;51.362;12.472;2023-02-28T05:38:26;1.40;;;1.05;;
74267;SDS011;62638;51.362;12.472;2023-02-28T05:40:52;3.00;;;1.53;;
74267;SDS011;62638;51.362;12.472;2023-02-28T05:43:18;3.53;;;1.50;;
74267;SDS011;62638;51.362;12.472;2023-02-28T05:45:43;1.90;;;1.08;;
74267;SDS011;62638;51.362;12.472;2023-02-28T05:48:08;1.97;;;1.70;;
74267;SDS011;62638;51.362;12.472;2023-02-28T05:50:34;0.93;;;0.27;;
74267;SDS011;62638;51.362;12.472;2023-02-28T05:52:59;7.17;;;1.93;;
74267;SDS011;62638;51.362;12.472;2023-02-28T05:55:24;2.67;;;0.83;;
74267;SDS011;62638;51.362;12.472;2023-02-28T05:57:50;0.38;;;0.32;;
74267;SDS011;62638;51.362;12.472;2023-02-28T06:00:15;7.05;;;1.30;;
74267;SDS011;62638;51.362;12.472;2023-02-28T06:02:42;2.40;;;1.13;;
74267;SDS011;62638;51.362;12.472;2023-02-28T06:05:10;3.42;;;1.15;;
74267;SDS011;62638;51.362;12.472;2023-02-28T06:07:38;3.05;;;1.27;;
74267;SDS011;62638;51.362;12.472;2023-02-28T06:10:04;3.50;;;1.77;;
74267;SDS011;62638;51.362;12.472;2023-02-28T06:12:29;1.52;;;1.45;;
74267;SDS011;62638;51.362;12.472;2023-02-28T06:14:55;7.53;;;1.17;;
74267;SDS011;62638;51.362;12.472;2023-02-28T06:17:20;1.90;;;1.23;;
74267;SDS011;62638;51.362;12.472;2023-02-28T06:19:45;1.97;;;0.83;;
74267;SDS011;62638;51.362;12.472;2023-02-28T06:22:11;2.03;;;1.33;;
74267;SDS011;62638;51.362;12.472;2023-02-28T06:24:36;11.30;;;2.33;;
74267;SDS011;62638;51.362;12.472;2023-02-28T06:27:01;3.10;;;1.50;;
74267;SDS011;62638;51.362;12.472;2023-02-28T06:29:30;3.75;;;1.63;;
74267;SDS011;62638;51.362;12.472;2023-02-28T06:31:56;1.33;;;1.20;;
74267;SDS011;62638;51.362;12.472;2023-02-28T06:34:21;1.47;;;1.37;;
74267;SDS011;62638;51.362;12.472;2023-02-28T06:36:47;2.22;;;1.92;;
74267;SDS011;62638;51.362;12.472;2023-02-28T06:39:15;2.50;;;1.33;;
74267;SDS011;62638;51.362;12.472;2023-02-28T06:41:40;1.47;;;0.67;;
74267;SDS011;62638;51.362;12.472;2023-02-28T06:44:12;4.60;;;1.47;;
74267;SDS011;62638;51.362;12.472;2023-02-28T06:46:40;5.20;;;1.75;;
74267;SDS011;62638;51.362;12.472;2023-02-28T06:49:06;2.08;;;1.23;;
74267;SDS011;62638;51.362;12.472;2023-02-28T06:51:34;2.03;;;1.08;;
74267;SDS011;62638;51.362;12.472;2023-02-28T06:54:00;2.55;;;1.40;;
74267;SDS011;62638;51.362;12.472;2023-02-28T06:56:25;2.35;;;1.65;;
74267;SDS011;62638;51.362;12.472;2023-02-28T06:58:50;1.23;;;1.13;;
74267;SDS011;62638;51.362;12.472;2023-02-28T07:01:17;4.20;;;1.95;;
74267;SDS011;62638;51.362;12.472;2023-02-28T07:03:43;6.28;;;2.08;;
74267;SDS011;62638;51.362;12.472;2023-02-28T07:06:09;1.05;;;0.73;;
74267;SDS011;62638;51.362;12.472;2023-02-28T07:08:34;3.40;;;1.48;;
74267;SDS011;62638;51.362;12.472;2023-02-28T07:11:00;0.63;;;0.63;;
74267;SDS011;62638;51.362;12.472;2023-02-28T07:13:26;0.80;;;0.75;;
74267;SDS011;62638;51.362;12.472;2023-02-28T07:15:59;3.05;;;1.42;;
74267;SDS011;62638;51.362;12.472;2023-02-28T07:18:26;3.15;;;1.33;;
74267;SDS011;62638;51.362;12.472;2023-02-28T07:20:51;2.92;;;1.52;;
74267;SDS011;62638;51.362;12.472;2023-02-28T07:23:17;2.20;;;1.30;;
74267;SDS011;62638;51.362;12.472;2023-02-28T07:25:42;8.73;;;2.10;;
74267;SDS011;62638;51.362;12.472;2023-02-28T07:28:08;4.85;;;1.80;;
74267;SDS011;62638;51.362;12.472;2023-02-28T07:30:34;2.83;;;1.00;;
74267;SDS011;62638;51.362;12.472;2023-02-28T07:32:59;3.33;;;1.43;;
74267;SDS011;62638;51.362;12.472;2023-02-28T07:35:24;2.03;;;1.33;;
74267;SDS011;62638;51.362;12.472;2023-02-28T07:37:49;3.43;;;1.40;;
74267;SDS011;62638;51.362;12.472;2023-02-28T07:40:15;1.83;;;1.03;;
74267;SDS011;62638;51.362;12.472;2023-02-28T07:42:40;5.30;;;1.30;;
74267;SDS011;62638;51.362;12.472;2023-02-28T07:45:07;3.20;;;1.20;;
74267;SDS011;62638;51.362;12.472;2023-02-28T07:47:36;6.57;;;2.72;;
74267;SDS011;62638;51.362;12.472;2023-02-28T07:50:02;4.25;;;1.50;;
74267;SDS011;62638;51.362;12.472;2023-02-28T07:52:27;2.78;;;0.80;;
74267;SDS011;62638;51.362;12.472;2023-02-28T07:54:52;1.93;;;1.70;;
74267;SDS011;62638;51.362;12.472;2023-02-28T07:57:18;1.98;;;0.95;;
74267;SDS011;62638;51.362;12.472;2023-02-28T07:59:43;0.70;;;0.50;;
74267;SDS011;62638;51.362;12.472;2023-02-28T08:02:15;2.22;;;1.40;;
74267;SDS011;62638;51.362;12.472;2023-02-28T08:04:42;2.58;;;1.63;;
74267;SDS011;62638;51.362;12.472;2023-02-28T08:07:07;2.60;;;1.87;;
74267;SDS011;62638;51.362;12.472;2023-02-28T08:09:33;1.23;;;0.63;;
74267;SDS011;62638;51.362;12.472;2023-02-28T08:11:59;4.32;;;1.17;;
74267;SDS011;62638;51.362;12.472;2023-02-28T08:14:24;2.95;;;2.85;;
74267;SDS011;62638;51.362;12.472;2023-02-28T08:16:49;1.37;;;1.27;;
74267;SDS011;62638;51.362;12.472;2023-02-28T08:19:15;1.33;;;1.07;;
74267;SDS011;62638;51.362;12.472;2023-02-28T08:21:40;6.22;;;1.77;;
74267;SDS011;62638;51.362;12.472;2023-02-28T08:24:05;0.90;;;0.90;;
74267;SDS011;62638;51.362;12.472;2023-02-28T08:26:31;3.50;;;1.35;;
74267;SDS011;62638;51.362;12.472;2023-02-28T08:28:57;5.50;;;2.05;;
74267;SDS011;62638;51.362;12.472;2023-02-28T08:31:22;4.20;;;1.17;;
74267;SDS011;62638;51.362;12.472;2023-02-28T08:33:47;3.38;;;1.65;;
74267;SDS011;62638;51.362;12.472;2023-02-28T08:36:15;1.75;;;1.20;;
74267;SDS011;62638;51.362;12.472;2023-02-28T08:38:41;1.27;;;1.13;;
74267;SDS011;62638;51.362;12.472;2023-02-28T08:41:07;2.03;;;1.30;;
74267;SDS011;62638;51.362;12.472;2023-02-28T08:43:34;1.77;;;1.05;;
74267;SDS011;62638;51.362;12.472;2023-02-28T08:46:00;5.18;;;1.95;;
74267;SDS011;62638;51.362;12.472;2023-02-28T08:48:26;2.28;;;2.03;;
74267;SDS011;62638;51.362;12.472;2023-02-28T08:50:56;2.20;;;0.85;;
74267;SDS011;62638;51.362;12.472;2023-02-28T08:53:26;3.83;;;1.65;;
74267;SDS011;62638;51.362;12.472;2023-02-28T08:56:07;3.17;;;1.60;;
74267;SDS011;62638;51.362;12.472;2023-02-28T08:58:34;1.67;;;1.05;;
74267;SDS011;62638;51.362;12.472;2023-02-28T09:01:06;1.85;;;1.02;;
74267;SDS011;62638;51.362;12.472;2023-02-28T09:03:33;1.52;;;1.13;;
74267;SDS011;62638;51.362;12.472;2023-02-28T09:05:59;1.60;;;1.03;;
74267;SDS011;62638;51.362;12.472;2023-02-28T09:08:27;2.70;;;0.98;;
74267;SDS011;62638;51.362;12.472;2023-02-28T09:10:53;1.60;;;0.75;;
74267;SDS011;62638;51.362;12.472;2023-02-28T09:13:19;4.15;;;1.08;;
74267;SDS011;62638;51.362;12.472;2023-02-28T09:15:45;5.70;;;1.17;;
74267;SDS011;62638;51.362;12.472;2023-02-28T09:18:10;2.83;;;1.53;;
74267;SDS011;62638;51.362;12.472;2023-02-28T09:20:39;6.20;;;1.98;;
74267;SDS011;62638;51.362;12.472;2023-02-28T09:23:06;3.15;;;1.80;;
74267;SDS011;62638;51.362;12.472;2023-02-28T09:25:31;2.03;;;1.35;;
74267;SDS011;62638;51.362;12.472;2023-02-28T09:27:57;2.88;;;1.50;;
74267;SDS011;62638;51.362;12.472;2023-02-28T09:30:23;2.80;;;1.53;;
74267;SDS011;62638;51.362;12.472;2023-02-28T09:32:48;1.20;;;1.10;;
74267;SDS011;62638;51.362;12.472;2023-02-28T09:35:23;1.80;;;1.30;;
74267;SDS011;62638;51.362;12.472;2023-02-28T09:37:52;7.88;;;1.48;;
74267;SDS011;62638;51.362;12.472;2023-02-28T09:42:45;2.10;;;1.25;;
74267;SDS011;62638;51.362;12.472;2023-02-28T09:45:19;2.00;;;1.23;;
74267;SDS011;62638;51.362;12.472;2023-02-28T09:47:49;5.82;;;1.38;;
74267;SDS011;62638;51.362;12.472;2023-02-28T09:50:38;3.85;;;1.45;;
74267;SDS011;62638;51.362;12.472;2023-02-28T09:53:19;2.13;;;1.10;;
74267;SDS011;62638;51.362;12.472;2023-02-28T09:55:49;3.13;;;0.63;;
74267;SDS011;62638;51.362;12.472;2023-02-28T09:58:26;1.42;;;1.05;;
74267;SDS011;62638;51.362;12.472;2023-02-28T10:06:26;2.97;;;1.10;;
74267;SDS011;62638;51.362;12.472;2023-02-28T10:11:29;1.42;;;1.23;;
74267;SDS011;62638;51.362;12.472;2023-02-28T10:14:18;4.20;;;1.50;;
74267;SDS011;62638;51.362;12.472;2023-02-28T10:16:47;1.50;;;1.02;;
74267;SDS011;62638;51.362;12.472;2023-02-28T10:22:01;2.33;;;1.67;;
74267;SDS011;62638;51.362;12.472;2023-02-28T10:24:51;1.08;;;0.80;;
74267;SDS011;62638;51.362;12.472;2023-02-28T10:29:52;1.52;;;1.13;;
74267;SDS011;62638;51.362;12.472;2023-02-28T10:34:55;3.67;;;1.95;;
74267;SDS011;62638;51.362;12.472;2023-02-28T10:37:23;2.53;;;1.35;;
74267;SDS011;62638;51.362;12.472;2023-02-28T10:39:49;3.58;;;0.93;;
74267;SDS011;62638;51.362;12.472;2023-02-28T10:42:24;1.40;;;1.20;;
74267;SDS011;62638;51.362;12.472;2023-02-28T10:48:27;7.07;;;2.08;;
74267;SDS011;62638;51.362;12.472;2023-02-28T10:55:55;1.52;;;1.23;;
74267;SDS011;62638;51.362;12.472;2023-02-28T10:58:25;1.58;;;1.23;;
74267;SDS011;62638;51.362;12.472;2023-02-28T11:01:20;1.63;;;0.85;;
74267;SDS011;62638;51.362;12.472;2023-02-28T11:03:49;3.42;;;1.40;;
74267;SDS011;62638;51.362;12.472;2023-02-28T11:06:16;1.05;;;0.88;;
74267;SDS011;62638;51.362;12.472;2023-02-28T11:08:47;3.95;;;1.27;;
74267;SDS011;62638;51.362;12.472;2023-02-28T11:11:14;3.05;;;1.13;;
74267;SDS011;62638;51.362;12.472;2023-02-28T11:13:41;1.67;;;1.52;;
74267;SDS011;62638;51.362;12.472;2023-02-28T11:16:10;7.93;;;1.65;;
74267;SDS011;62638;51.362;12.472;2023-02-28T11:18:41;4.80;;;2.22;;
74267;SDS011;62638;51.362;12.472;2023-02-28T11:21:10;3.85;;;1.92;;
74267;SDS011;62638;51.362;12.472;2023-02-28T11:23:42;2.17;;;1.25;;
74267;SDS011;62638;51.362;12.472;2023-02-28T11:26:07;3.85;;;2.08;;
74267;SDS011;62638;51.362;12.472;2023-02-28T11:28:40;3.80;;;1.20;;
74267;SDS011;62638;51.362;12.472;2023-02-28T11:33:54;1.85;;;1.23;;
74267;SDS011;62638;51.362;12.472;2023-02-28T11:38:59;3.22;;;1.15;;
74267;SDS011;62638;51.362;12.472;2023-02-28T11:56:14;4.00;;;2.15;;
74267;SDS011;62638;51.362;12.472;2023-02-28T12:01:38;2.10;;;1.63;;
74267;SDS011;62638;51.362;12.472;2023-02-28T12:04:20;4.20;;;2.85;;
74267;SDS011;62638;51.362;12.472;2023-02-28T12:14:36;5.20;;;2.30;;
74267;SDS011;62638;51.362;12.472;2023-02-28T12:17:51;2.03;;;1.70;;
74267;SDS011;62638;51.362;12.472;2023-02-28T12:26:15;4.60;;;2.05;;
74267;SDS011;62638;51.362;12.472;2023-02-28T12:28:50;1.85;;;1.38;;
74267;SDS011;62638;51.362;12.472;2023-02-28T12:31:38;4.82;;;2.63;;
74267;SDS011;62638;51.362;12.472;2023-02-28T12:34:46;4.68;;;2.63;;
74267;SDS011;62638;51.362;12.472;2023-02-28T12:39:57;4.35;;;1.83;;
74267;SDS011;62638;51.362;12.472;2023-02-28T12:42:31;5.55;;;2.30;;
74267;SDS011;62638;51.362;12.472;2023-02-28T12:45:05;3.83;;;1.70;;
74267;SDS011;62638;51.362;12.472;2023-02-28T12:47:43;3.05;;;1.38;;
74267;SDS011;62638;51.362;12.472;2023-02-28T12:50:11;4.97;;;2.80;;
74267;SDS011;62638;51.362;12.472;2023-02-28T12:52:40;6.00;;;3.33;;
74267;SDS011;62638;51.362;12.472;2023-02-28T12:55:15;4.82;;;2.35;;
74267;SDS011;62638;51.362;12.472;2023-02-28T13:00:29;6.50;;;1.75;;
74267;SDS011;62638;51.362;12.472;2023-02-28T13:03:24;3.97;;;1.98;;
74267;SDS011;62638;51.362;12.472;2023-02-28T13:08:59;3.50;;;1.92;;
74267;SDS011;62638;51.362;12.472;2023-02-28T13:11:38;6.80;;;2.35;;
74267;SDS011;62638;51.362;12.472;2023-02-28T13:14:13;5.15;;;2.55;;
74267;SDS011;62638;51.362;12.472;2023-02-28T13:16:50;3.25;;;2.08;;
74267;SDS011;62638;51.362;12.472;2023-02-28T13:19:20;3.53;;;2.38;;
74267;SDS011;62638;51.362;12.472;2023-02-28T13:21:49;2.83;;;1.58;;
74267;SDS011;62638;51.362;12.472;2023-02-28T13:34:35;3.92;;;2.00;;
74267;SDS011;62638;51.362;12.472;2023-02-28T13:39:54;5.65;;;1.95;;
74267;SDS011;62638;51.362;12.472;2023-02-28T13:45:20;4.70;;;1.97;;
74267;SDS011;62638;51.362;12.472;2023-02-28T13:47:39;4.47;;;2.30;;
74267;SDS011;62638;51.362;12.472;2023-02-28T13:58:32;2.40;;;2.03;;
74267;SDS011;62638;51.362;12.472;2023-02-28T14:01:08;2.45;;;1.58;;
74267;SDS011;62638;51.362;12.472;2023-02-28T14:06:22;3.10;;;1.88;;
74267;SDS011;62638;51.362;12.472;2023-02-28T14:08:52;6.93;;;2.65;;
74267;SDS011;62638;51.362;12.472;2023-02-28T14:11:30;4.70;;;3.40;;
74267;SDS011;62638;51.362;12.472;2023-02-28T14:13:57;5.93;;;2.25;;
74267;SDS011;62638;51.362;12.472;2023-02-28T14:16:25;5.38;;;2.08;;
74267;SDS011;62638;51.362;12.472;2023-02-28T14:19:04;4.00;;;2.22;;
74267;SDS011;62638;51.362;12.472;2023-02-28T14:21:38;4.25;;;2.33;;
74267;SDS011;62638;51.362;12.472;2023-02-28T14:24:48;4.80;;;2.42;;
74267;SDS011;62638;51.362;12.472;2023-02-28T14:27:35;8.07;;;2.90;;
74267;SDS011;62638;51.362;12.472;2023-02-28T14:33:01;3.97;;;2.15;;
74267;SDS011;62638;51.362;12.472;2023-02-28T14:35:54;7.00;;;2.05;;
74267;SDS011;62638;51.362;12.472;2023-02-28T14:41:12;6.68;;;2.45;;
74267;SDS011;62638;51.362;12.472;2023-02-28T14:43:49;4.93;;;2.50;;
74267;SDS011;62638;51.362;12.472;2023-02-28T14:48:44;2.83;;;2.05;;
74267;SDS011;62638;51.362;12.472;2023-02-28T14:51:11;5.05;;;2.85;;
74267;SDS011;62638;51.362;12.472;2023-02-28T14:53:37;6.97;;;2.95;;
74267;SDS011;62638;51.362;12.472;2023-02-28T14:56:02;5.15;;;2.50;;
74267;SDS011;62638;51.362;12.472;2023-02-28T14:58:29;4.68;;;2.15;;
74267;SDS011;62638;51.362;12.472;2023-02-28T15:00:57;3.58;;;1.75;;
74267;SDS011;62638;51.362;12.472;2023-02-28T15:05:56;4.63;;;2.95;;
74267;SDS011;62638;51.362;12.472;2023-02-28T15:08:29;4.75;;;2.83;;
74267;SDS011;62638;51.362;12.472;2023-02-28T15:11:00;5.00;;;3.15;;
74267;SDS011;62638;51.362;12.472;2023-02-28T15:13:36;2.35;;;1.48;;
74267;SDS011;62638;51.362;12.472;2023-02-28T15:16:05;3.00;;;1.75;;
74267;SDS011;62638;51.362;12.472;2023-02-28T15:21:32;7.68;;;2.28;;
74267;SDS011;62638;51.362;12.472;2023-02-28T15:26:30;4.45;;;1.52;;
74267;SDS011;62638;51.362;12.472;2023-02-28T15:29:00;3.58;;;2.20;;
74267;SDS011;62638;51.362;12.472;2023-02-28T15:31:34;2.50;;;1.60;;
74267;SDS011;62638;51.362;12.472;2023-02-28T15:34:05;4.97;;;2.95;;
74267;SDS011;62638;51.362;12.472;2023-02-28T15:36:34;4.90;;;2.00;;
74267;SDS011;62638;51.362;12.472;2023-02-28T15:39:02;5.30;;;2.80;;
74267;SDS011;62638;51.362;12.472;2023-02-28T15:41:29;4.72;;;2.47;;
74267;SDS011;62638;51.362;12.472;2023-02-28T15:46:43;5.88;;;2.88;;
74267;SDS011;62638;51.362;12.472;2023-02-28T15:49:19;10.80;;;2.05;;
74267;SDS011;62638;51.362;12.472;2023-02-28T15:51:47;6.32;;;2.70;;
74267;SDS011;62638;51.362;12.472;2023-02-28T15:54:17;5.25;;;2.42;;
74267;SDS011;62638;51.362;12.472;2023-02-28T15:56:49;4.00;;;2.67;;
74267;SDS011;62638;51.362;12.472;2023-02-28T15:59:17;5.53;;;3.28;;
74267;SDS011;62638;51.362;12.472;2023-02-28T16:04:53;5.00;;;2.65;;
74267;SDS011;62638;51.362;12.472;2023-02-28T16:07:20;2.60;;;1.75;;
74267;SDS011;62638;51.362;12.472;2023-02-28T16:09:45;5.30;;;3.23;;
74267;SDS011;62638;51.362;12.472;2023-02-28T16:12:12;5.35;;;3.05;;
74267;SDS011;62638;51.362;12.472;2023-02-28T16:14:38;5.15;;;2.50;;
74267;SDS011;62638;51.362;12.472;2023-02-28T16:17:06;4.75;;;2.42;;
74267;SDS011;62638;51.362;12.472;2023-02-28T16:19:38;8.20;;;3.75;;
74267;SDS011;62638;51.362;12.472;2023-02-28T16:22:04;5.93;;;3.30;;
74267;SDS011;62638;51.362;12.472;2023-02-28T16:24:29;7.00;;;3.60;;
74267;SDS011;62638;51.362;12.472;2023-02-28T16:26:54;6.50;;;2.63;;
74267;SDS011;62638;51.362;12.472;2023-02-28T16:29:25;3.65;;;2.58;;
74267;SDS011;62638;51.362;12.472;2023-02-28T16:31:53;6.85;;;3.65;;
74267;SDS011;62638;51.362;12.472;2023-02-28T16:34:19;4.93;;;2.67;;
74267;SDS011;62638;51.362;12.472;2023-02-28T16:36:46;5.10;;;3.17;;
74267;SDS011;62638;51.362;12.472;2023-02-28T16:39:12;6.32;;;3.15;;
74267;SDS011;62638;51.362;12.472;2023-02-28T16:41:37;6.70;;;3.93;;
74267;SDS011;62638;51.362;12.472;2023-02-28T16:44:09;4.10;;;2.60;;
74267;SDS011;62638;51.362;12.472;2023-02-28T16:46:38;13.60;;;3.47;;
74267;SDS011;62638;51.362;12.472;2023-02-28T16:49:03;4.43;;;3.20;;
74267;SDS011;62638;51.362;12.472;2023-02-28T16:51:28;7.13;;;3.50;;
74267;SDS011;62638;51.362;12.472;2023-02-28T16:53:54;5.65;;;3.40;;
74267;SDS011;62638;51.362;12.472;2023-02-28T16:56:20;6.32;;;3.17;;
74267;SDS011;62638;51.362;12.472;2023-02-28T16:58:48;7.63;;;3.92;;
74267;SDS011;62638;51.362;12.472;2023-02-28T17:01:14;5.57;;;3.25;;
74267;SDS011;62638;51.362;12.472;2023-02-28T17:03:40;6.30;;;3.30;;
74267;SDS011;62638;51.362;12.472;2023-02-28T17:06:09;9.90;;;3.90;;
74267;SDS011;62638;51.362;12.472;2023-02-28T17:08:42;7.93;;;3.15;;
74267;SDS011;62638;51.362;12.472;2023-02-28T17:11:08;9.13;;;3.72;;
74267;SDS011;62638;51.362;12.472;2023-02-28T17:13:33;7.43;;;3.40;;
74267;SDS011;62638;51.362;12.472;2023-02-28T17:15:59;6.32;;;3.63;;
74267;SDS011;62638;51.362;12.472;2023-02-28T17:18:24;6.72;;;3.00;;
74267;SDS011;62638;51.362;12.472;2023-02-28T17:20:51;6.57;;;3.00;;
74267;SDS011;62638;51.362;12.472;2023-02-28T17:23:16;5.00;;;3.07;;
74267;SDS011;62638;51.362;12.472;2023-02-28T17:25:42;3.67;;;2.13;;
74267;SDS011;62638;51.362;12.472;2023-02-28T17:28:17;7.78;;;4.15;;
74267;SDS011;62638;51.362;12.472;2023-02-28T17:30:43;9.05;;;2.42;;
74267;SDS011;62638;51.362;12.472;2023-02-28T17:35:37;5.07;;;2.70;;
74267;SDS011;62638;51.362;12.472;2023-02-28T17:38:02;5.33;;;3.17;;
74267;SDS011;62638;51.362;12.472;2023-02-28T17:40:27;6.93;;;4.10;;
74267;SDS011;62638;51.362;12.472;2023-02-28T17:42:52;5.13;;;3.40;;
74267;SDS011;62638;51.362;12.472;2023-02-28T17:45:20;7.68;;;3.72;;
74267;SDS011;62638;51.362;12.472;2023-02-28T17:47:46;9.10;;;4.35;;
74267;SDS011;62638;51.362;12.472;2023-02-28T17:50:12;5.00;;;3.95;;
74267;SDS011;62638;51.362;12.472;2023-02-28T17:52:39;6.18;;;3.55;;
74267;SDS011;62638;51.362;12.472;2023-02-28T17:55:04;7.87;;;3.73;;
74267;SDS011;62638;51.362;12.472;2023-02-28T17:57:30;9.70;;;3.22;;
74267;SDS011;62638;51.362;12.472;2023-02-28T17:59:55;8.10;;;3.93;;
74267;SDS011;62638;51.362;12.472;2023-02-28T18:02:21;3.55;;;2.88;;
74267;SDS011;62638;51.362;12.472;2023-02-28T18:04:47;6.18;;;2.92;;
74267;SDS011;62638;51.362;12.472;2023-02-28T18:07:13;8.53;;;3.00;;
74267;SDS011;62638;51.362;12.472;2023-02-28T18:09:38;3.17;;;2.57;;
74267;SDS011;62638;51.362;12.472;2023-02-28T18:12:03;7.43;;;4.03;;
74267;SDS011;62638;51.362;12.472;2023-02-28T18:14:29;4.43;;;2.80;;
74267;SDS011;62638;51.362;12.472;2023-02-28T18:16:54;6.68;;;3.72;;
74267;SDS011;62638;51.362;12.472;2023-02-28T18:19:21;5.32;;;2.03;;
74267;SDS011;62638;51.362;12.472;2023-02-28T18:21:47;9.52;;;3.60;;
74267;SDS011;62638;51.362;12.472;2023-02-28T18:24:14;14.82;;;4.13;;
74267;SDS011;62638;51.362;12.472;2023-02-28T18:26:41;11.05;;;4.70;;
74267;SDS011;62638;51.362;12.472;2023-02-28T18:29:08;7.75;;;3.85;;
74267;SDS011;62638;51.362;12.472;2023-02-28T18:31:40;6.28;;;3.70;;
74267;SDS011;62638;51.362;12.472;2023-02-28T18:34:06;8.10;;;4.47;;
74267;SDS011;62638;51.362;12.472;2023-02-28T18:36:31;5.95;;;2.85;;
74267;SDS011;62638;51.362;12.472;2023-02-28T18:38:56;8.00;;;4.07;;
74267;SDS011;62638;51.362;12.472;2023-02-28T18:41:22;8.90;;;4.78;;
74267;SDS011;62638;51.362;12.472;2023-02-28T18:43:48;8.50;;;4.47;;
74267;SDS011;62638;51.362;12.472;2023-02-28T18:46:16;9.38;;;5.15;;
74267;SDS011;62638;51.362;12.472;2023-02-28T18:48:43;5.38;;;3.25;;
74267;SDS011;62638;51.362;12.472;2023-02-28T18:51:09;8.60;;;5.15;;
74267;SDS011;62638;51.362;12.472;2023-02-28T18:53:37;8.38;;;3.60;;
74267;SDS011;62638;51.362;12.472;2023-02-28T18:56:03;15.50;;;5.22;;
74267;SDS011;62638;51.362;12.472;2023-02-28T18:58:30;8.38;;;4.35;;
74267;SDS011;62638;51.362;12.472;2023-02-28T19:00:57;10.18;;;4.47;;
74267;SDS011;62638;51.362;12.472;2023-02-28T19:03:23;7.07;;;4.13;;